Startpagina
METAR-TAF:

METAR-TAF

Vliegvelden :

Luchthaven Diori Hamani

Niamey, Niger

breedte: 13-29N, lengte: 002-10E, hoogte: 223 m

Actueel weer

Dit bericht is 54 minuten geleden gemaakt, om 17:00 UTC
Wind 7 kt uit het noordnoordoosten, variërend tussen het noorden en het oostnoordoosten
Temperatuur 42°C
Vochtigheid 5%
Druk 1007 hPa
Zicht: 3500 m
verspreid stof

METAR: DRRN 251700Z 03007KT 360V060 3500 DU NSC 42/M06 Q1007 TEMPO 2000

Tijdstip: 18:54 (17:54 UTC)

Verwachting

Dit bericht is 54 minuten geleden gemaakt, om 17:00 UTC
Verwachting geldig van 25 om 18 UTC tot 26 om 24 UTC
Wind 12 kt uit het noordnoordoosten
Zicht: 4000 m
verspreid stof
Tijdelijke
van 25 om 18 UTC tot 25 om 22 UTC
Zicht: 2000 m
Tijdelijke
van 26 om 06 UTC tot 26 om 10 UTC
Zicht: 2000 m
Wijzigt naar
van 26 om 12 UTC tot 26 om 14 UTC
Zicht: 6000 m

TAF: DRRN 251700Z 2518/2624 02012KT 4000 DU NSC TEMPO 2518/2522 2000 TEMPO 2606/2610 2000 BECMG 2612/2614 6000 NSW

Waarnemingen en weersverwachtingen van meer dan 4000 vliegvelden (METAR en TAF).

De beschikbare stations zijn de gele en rode punten op de kaart.

Ga met uw muis naar het station om de naam te zien.

Klik dan om waarnemingen en weersverwachtingen te zien.

kaart wijzigen: klik op de groene knoppen met een zwart kruis om in te zoomen, op de groene knop met een streepje om uit te zoomen of op de groene pijlen voor aangrenzende kaarten.


METAR-TAF: